sensor_id;sensor_type;location;lat;lon;timestamp;pressure;altitude;pressure_sealevel;temperature;humidity
60832;BME280;46665;51.558;-0.448;2024-03-23T00:54:59;100929.91;;;4.98;100.00
60832;BME280;46665;51.558;-0.448;2024-03-23T00:57:42;100929.91;;;4.98;100.00
60832;BME280;46665;51.558;-0.448;2024-03-23T01:00:27;100931.56;;;4.99;100.00
60832;BME280;46665;51.558;-0.448;2024-03-23T01:03:11;100930.38;;;4.95;100.00
60832;BME280;46665;51.558;-0.448;2024-03-23T01:06:01;100929.34;;;4.96;100.00
60832;BME280;46665;51.558;-0.448;2024-03-23T01:08:45;100928.25;;;4.97;100.00
60832;BME280;46665;51.558;-0.448;2024-03-23T01:11:29;100931.66;;;4.93;100.00
60832;BME280;46665;51.558;-0.448;2024-03-23T01:14:14;100928.75;;;4.94;100.00
60832;BME280;46665;51.558;-0.448;2024-03-23T01:16:58;100922.44;;;4.89;100.00
60832;BME280;46665;51.558;-0.448;2024-03-23T01:19:42;100927.56;;;4.90;100.00
60832;BME280;46665;51.558;-0.448;2024-03-23T01:22:26;100925.81;;;4.84;100.00
60832;BME280;46665;51.558;-0.448;2024-03-23T01:25:10;100916.94;;;4.84;100.00
60832;BME280;46665;51.558;-0.448;2024-03-23T01:27:54;100926.63;;;4.85;100.00
60832;BME280;46665;51.558;-0.448;2024-03-23T01:30:37;100922.31;;;4.84;100.00
60832;BME280;46665;51.558;-0.448;2024-03-23T01:33:23;100918.22;;;4.81;100.00
60832;BME280;46665;51.558;-0.448;2024-03-23T01:36:07;100915.53;;;4.81;100.00
60832;BME280;46665;51.558;-0.448;2024-03-23T01:38:52;100904.59;;;4.76;100.00
60832;BME280;46665;51.558;-0.448;2024-03-23T01:41:35;100909.97;;;4.76;100.00
60832;BME280;46665;51.558;-0.448;2024-03-23T01:44:21;100910.72;;;4.71;100.00
60832;BME280;46665;51.558;-0.448;2024-03-23T01:47:06;100908.59;;;4.73;100.00
60832;BME280;46665;51.558;-0.448;2024-03-23T01:49:51;100911.53;;;4.72;100.00
60832;BME280;46665;51.558;-0.448;2024-03-23T01:52:35;100917.41;;;4.69;100.00
60832;BME280;46665;51.558;-0.448;2024-03-23T01:55:20;100904.16;;;4.67;100.00
60832;BME280;46665;51.558;-0.448;2024-03-23T01:58:04;100902.16;;;4.63;100.00
60832;BME280;46665;51.558;-0.448;2024-03-23T02:00:48;100894.06;;;4.63;100.00
60832;BME280;46665;51.558;-0.448;2024-03-23T02:03:31;100885.88;;;4.57;100.00
60832;BME280;46665;51.558;-0.448;2024-03-23T02:06:15;100899.72;;;4.61;100.00
60832;BME280;46665;51.558;-0.448;2024-03-23T02:08:59;100886.13;;;4.56;100.00
60832;BME280;46665;51.558;-0.448;2024-03-23T02:11:44;100895.50;;;4.53;100.00
60832;BME280;46665;51.558;-0.448;2024-03-23T02:14:28;100897.94;;;4.55;100.00
60832;BME280;46665;51.558;-0.448;2024-03-23T02:17:12;100906.97;;;4.49;100.00
60832;BME280;46665;51.558;-0.448;2024-03-23T02:19:56;100903.00;;;4.51;100.00
60832;BME280;46665;51.558;-0.448;2024-03-23T02:22:40;100893.59;;;4.42;100.00
60832;BME280;46665;51.558;-0.448;2024-03-23T02:25:24;100898.50;;;4.45;100.00
60832;BME280;46665;51.558;-0.448;2024-03-23T02:28:08;100894.06;;;4.39;100.00
60832;BME280;46665;51.558;-0.448;2024-03-23T02:30:53;100897.97;;;4.43;100.00
60832;BME280;46665;51.558;-0.448;2024-03-23T02:33:37;100889.28;;;4.41;100.00
60832;BME280;46665;51.558;-0.448;2024-03-23T02:36:22;100889.50;;;4.40;100.00
60832;BME280;46665;51.558;-0.448;2024-03-23T02:39:06;100902.03;;;4.34;100.00
60832;BME280;46665;51.558;-0.448;2024-03-23T02:41:50;100889.72;;;4.26;100.00
60832;BME280;46665;51.558;-0.448;2024-03-23T02:44:34;100908.34;;;4.28;100.00
60832;BME280;46665;51.558;-0.448;2024-03-23T02:47:18;100890.78;;;4.25;100.00
60832;BME280;46665;51.558;-0.448;2024-03-23T02:50:02;100904.50;;;4.24;100.00
60832;BME280;46665;51.558;-0.448;2024-03-23T02:52:46;100899.56;;;4.21;100.00
60832;BME280;46665;51.558;-0.448;2024-03-23T02:55:30;100895.69;;;4.17;100.00
60832;BME280;46665;51.558;-0.448;2024-03-23T02:58:14;100902.28;;;4.21;100.00
60832;BME280;46665;51.558;-0.448;2024-03-23T03:00:58;100897.09;;;4.19;100.00
60832;BME280;46665;51.558;-0.448;2024-03-23T03:03:42;100899.56;;;4.21;100.00
60832;BME280;46665;51.558;-0.448;2024-03-23T03:06:27;100891.59;;;4.14;100.00
60832;BME280;46665;51.558;-0.448;2024-03-23T03:09:11;100894.06;;;4.16;100.00
60832;BME280;46665;51.558;-0.448;2024-03-23T03:11:55;100891.38;;;4.16;100.00
60832;BME280;46665;51.558;-0.448;2024-03-23T03:14:39;100895.91;;;4.15;100.00
60832;BME280;46665;51.558;-0.448;2024-03-23T03:17:23;100899.88;;;4.12;100.00
60832;BME280;46665;51.558;-0.448;2024-03-23T03:20:08;100899.53;;;4.09;100.00
60832;BME280;46665;51.558;-0.448;2024-03-23T03:22:56;100891.94;;;4.06;100.00
60832;BME280;46665;51.558;-0.448;2024-03-23T03:25:40;100896.72;;;4.04;100.00
60832;BME280;46665;51.558;-0.448;2024-03-23T03:28:24;100898.34;;;4.05;100.00
60832;BME280;46665;51.558;-0.448;2024-03-23T03:31:10;100901.66;;;4.07;100.00
60832;BME280;46665;51.558;-0.448;2024-03-23T03:33:54;100886.78;;;4.04;100.00
60832;BME280;46665;51.558;-0.448;2024-03-23T03:36:38;100891.56;;;4.02;100.00
60832;BME280;46665;51.558;-0.448;2024-03-23T03:39:21;100882.91;;;4.00;100.00
60832;BME280;46665;51.558;-0.448;2024-03-23T03:42:06;100881.72;;;3.96;100.00
60832;BME280;46665;51.558;-0.448;2024-03-23T03:44:51;100880.91;;;3.96;100.00
60832;BME280;46665;51.558;-0.448;2024-03-23T03:47:36;100882.66;;;3.90;100.00
60832;BME280;46665;51.558;-0.448;2024-03-23T03:50:21;100878.91;;;3.91;100.00
60832;BME280;46665;51.558;-0.448;2024-03-23T03:53:05;100874.00;;;3.88;100.00
60832;BME280;46665;51.558;-0.448;2024-03-23T03:55:50;100869.91;;;3.85;100.00
60832;BME280;46665;51.558;-0.448;2024-03-23T03:58:34;100863.09;;;3.83;100.00
60832;BME280;46665;51.558;-0.448;2024-03-23T04:01:18;100879.47;;;3.81;100.00
60832;BME280;46665;51.558;-0.448;2024-03-23T04:04:02;100864.00;;;3.77;100.00
60832;BME280;46665;51.558;-0.448;2024-03-23T04:06:46;100859.44;;;3.77;100.00
60832;BME280;46665;51.558;-0.448;2024-03-23T04:09:29;100871.84;;;3.78;100.00
60832;BME280;46665;51.558;-0.448;2024-03-23T04:12:14;100867.06;;;3.80;100.00
60832;BME280;46665;51.558;-0.448;2024-03-23T04:14:58;100868.09;;;3.79;100.00
60832;BME280;46665;51.558;-0.448;2024-03-23T04:17:42;100863.88;;;3.72;100.00
60832;BME280;46665;51.558;-0.448;2024-03-23T04:20:26;100862.84;;;3.73;100.00
60832;BME280;46665;51.558;-0.448;2024-03-23T04:23:10;100873.00;;;3.71;100.00
60832;BME280;46665;51.558;-0.448;2024-03-23T04:25:54;100865.84;;;3.64;100.00
60832;BME280;46665;51.558;-0.448;2024-03-23T04:28:38;100860.44;;;3.64;100.00
60832;BME280;46665;51.558;-0.448;2024-03-23T04:31:22;100863.16;;;3.64;100.00
60832;BME280;46665;51.558;-0.448;2024-03-23T04:34:06;100873.34;;;3.62;100.00
60832;BME280;46665;51.558;-0.448;2024-03-23T04:36:50;100859.97;;;3.56;100.00
60832;BME280;46665;51.558;-0.448;2024-03-23T04:39:35;100856.59;;;3.60;100.00
60832;BME280;46665;51.558;-0.448;2024-03-23T04:42:19;100857.75;;;3.53;100.00
60832;BME280;46665;51.558;-0.448;2024-03-23T04:45:04;100864.16;;;3.52;100.00
60832;BME280;46665;51.558;-0.448;2024-03-23T04:47:49;100859.03;;;3.50;100.00
60832;BME280;46665;51.558;-0.448;2024-03-23T04:50:33;100860.06;;;3.49;100.00
60832;BME280;46665;51.558;-0.448;2024-03-23T04:53:17;100852.09;;;3.42;100.00
60832;BME280;46665;51.558;-0.448;2024-03-23T04:56:01;100842.03;;;3.38;100.00
60832;BME280;46665;51.558;-0.448;2024-03-23T04:58:45;100848.94;;;3.45;100.00
60832;BME280;46665;51.558;-0.448;2024-03-23T05:01:29;100858.66;;;3.46;100.00
60832;BME280;46665;51.558;-0.448;2024-03-23T05:04:14;100854.94;;;3.47;100.00
60832;BME280;46665;51.558;-0.448;2024-03-23T05:06:58;100852.91;;;3.43;100.00
60832;BME280;46665;51.558;-0.448;2024-03-23T05:09:42;100848.59;;;3.42;100.00
60832;BME280;46665;51.558;-0.448;2024-03-23T05:12:26;100842.63;;;3.40;100.00
60832;BME280;46665;51.558;-0.448;2024-03-23T05:15:10;100834.16;;;3.36;100.00
60832;BME280;46665;51.558;-0.448;2024-03-23T05:17:54;100838.88;;;3.41;100.00
60832;BME280;46665;51.558;-0.448;2024-03-23T05:20:38;100836.78;;;3.43;100.00
60832;BME280;46665;51.558;-0.448;2024-03-23T05:23:22;100829.91;;;3.47;100.00
60832;BME280;46665;51.558;-0.448;2024-03-23T05:26:06;100832.00;;;3.45;100.00
60832;BME280;46665;51.558;-0.448;2024-03-23T05:28:49;100828.25;;;3.46;100.00
60832;BME280;46665;51.558;-0.448;2024-03-23T05:31:33;100828.38;;;3.51;100.00
60832;BME280;46665;51.558;-0.448;2024-03-23T05:34:18;100831.66;;;3.53;100.00
60832;BME280;46665;51.558;-0.448;2024-03-23T05:37:02;100825.94;;;3.50;100.00
60832;BME280;46665;51.558;-0.448;2024-03-23T05:39:45;100830.25;;;3.51;100.00
60832;BME280;46665;51.558;-0.448;2024-03-23T05:42:31;100833.16;;;3.49;100.00
60832;BME280;46665;51.558;-0.448;2024-03-23T05:45:15;100839.72;;;3.53;100.00
60832;BME280;46665;51.558;-0.448;2024-03-23T05:48:02;100828.03;;;3.47;100.00
60832;BME280;46665;51.558;-0.448;2024-03-23T05:50:47;100833.16;;;3.49;100.00
60832;BME280;46665;51.558;-0.448;2024-03-23T05:53:30;100825.69;;;3.51;100.00
60832;BME280;46665;51.558;-0.448;2024-03-23T05:56:14;100823.44;;;3.48;100.00
60832;BME280;46665;51.558;-0.448;2024-03-23T05:59:03;100823.00;;;3.51;100.00
60832;BME280;46665;51.558;-0.448;2024-03-23T06:01:47;100819.94;;;3.47;100.00
60832;BME280;46665;51.558;-0.448;2024-03-23T06:04:31;100806.97;;;3.44;100.00
60832;BME280;46665;51.558;-0.448;2024-03-23T06:07:15;100807.78;;;3.45;100.00
60832;BME280;46665;51.558;-0.448;2024-03-23T06:09:59;100804.16;;;3.39;100.00
60832;BME280;46665;51.558;-0.448;2024-03-23T06:12:43;100808.25;;;3.42;100.00
60832;BME280;46665;51.558;-0.448;2024-03-23T06:15:27;100811.38;;;3.39;100.00
60832;BME280;46665;51.558;-0.448;2024-03-23T06:18:11;100815.84;;;3.45;100.00
60832;BME280;46665;51.558;-0.448;2024-03-23T06:20:55;100812.69;;;3.48;100.00
60832;BME280;46665;51.558;-0.448;2024-03-23T06:23:40;100813.75;;;3.47;100.00
60832;BME280;46665;51.558;-0.448;2024-03-23T06:26:25;100807.91;;;3.50;100.00
60832;BME280;46665;51.558;-0.448;2024-03-23T06:29:08;100807.31;;;3.48;100.00
60832;BME280;46665;51.558;-0.448;2024-03-23T06:31:55;100804.41;;;3.50;100.00
60832;BME280;46665;51.558;-0.448;2024-03-23T06:34:43;100805.81;;;3.52;100.00
60832;BME280;46665;51.558;-0.448;2024-03-23T06:37:27;100801.84;;;3.55;100.00
60832;BME280;46665;51.558;-0.448;2024-03-23T06:40:12;100809.66;;;3.56;100.00
60832;BME280;46665;51.558;-0.448;2024-03-23T06:42:56;100801.00;;;3.54;100.00
60832;BME280;46665;51.558;-0.448;2024-03-23T06:45:40;100809.44;;;3.58;100.00
60832;BME280;46665;51.558;-0.448;2024-03-23T06:48:24;100809.19;;;3.59;100.00
60832;BME280;46665;51.558;-0.448;2024-03-23T06:51:08;100809.78;;;3.61;100.00
60832;BME280;46665;51.558;-0.448;2024-03-23T06:53:53;100806.06;;;3.62;100.00
60832;BME280;46665;51.558;-0.448;2024-03-23T06:56:37;100810.97;;;3.65;100.00
60832;BME280;46665;51.558;-0.448;2024-03-23T06:59:21;100810.50;;;3.68;100.00
60832;BME280;46665;51.558;-0.448;2024-03-23T07:02:08;100800.94;;;3.73;100.00
60832;BME280;46665;51.558;-0.448;2024-03-23T07:04:52;100805.38;;;3.79;100.00
60832;BME280;46665;51.558;-0.448;2024-03-23T07:07:38;100797.91;;;3.81;100.00
60832;BME280;46665;51.558;-0.448;2024-03-23T07:10:22;100783.63;;;3.80;100.00
60832;BME280;46665;51.558;-0.448;2024-03-23T07:13:06;100799.78;;;3.92;100.00
60832;BME280;46665;51.558;-0.448;2024-03-23T07:15:53;100791.25;;;3.95;100.00
60832;BME280;46665;51.558;-0.448;2024-03-23T07:18:39;100792.78;;;4.03;100.00
60832;BME280;46665;51.558;-0.448;2024-03-23T07:21:23;100797.00;;;4.10;100.00
60832;BME280;46665;51.558;-0.448;2024-03-23T07:24:07;100803.31;;;4.16;100.00
60832;BME280;46665;51.558;-0.448;2024-03-23T07:26:51;100794.88;;;4.24;100.00
60832;BME280;46665;51.558;-0.448;2024-03-23T07:29:37;100791.59;;;4.34;100.00
60832;BME280;46665;51.558;-0.448;2024-03-23T07:32:21;100790.63;;;4.40;100.00
60832;BME280;46665;51.558;-0.448;2024-03-23T07:35:06;100775.97;;;4.48;100.00
60832;BME280;46665;51.558;-0.448;2024-03-23T07:37:50;100786.63;;;4.54;100.00
60832;BME280;46665;51.558;-0.448;2024-03-23T07:40:34;100782.50;;;4.64;100.00
60832;BME280;46665;51.558;-0.448;2024-03-23T07:43:18;100769.78;;;4.76;100.00
60832;BME280;46665;51.558;-0.448;2024-03-23T07:46:02;100768.53;;;4.78;100.00
60832;BME280;46665;51.558;-0.448;2024-03-23T07:48:47;100755.59;;;4.81;100.00
60832;BME280;46665;51.558;-0.448;2024-03-23T07:51:32;100764.72;;;4.91;100.00
60832;BME280;46665;51.558;-0.448;2024-03-23T07:54:17;100756.47;;;4.98;100.00
60832;BME280;46665;51.558;-0.448;2024-03-23T07:57:01;100756.66;;;5.08;100.00
60832;BME280;46665;51.558;-0.448;2024-03-23T07:59:45;100747.63;;;5.14;100.00
60832;BME280;46665;51.558;-0.448;2024-03-23T08:02:29;100752.03;;;5.20;100.00
60832;BME280;46665;51.558;-0.448;2024-03-23T08:05:13;100755.63;;;5.26;100.00
60832;BME280;46665;51.558;-0.448;2024-03-23T08:07:57;100762.28;;;5.35;100.00
60832;BME280;46665;51.558;-0.448;2024-03-23T08:10:51;100762.47;;;5.46;100.00
60832;BME280;46665;51.558;-0.448;2024-03-23T08:13:36;100753.44;;;5.57;100.00
60832;BME280;46665;51.558;-0.448;2024-03-23T08:16:21;100762.47;;;5.62;100.00
60832;BME280;46665;51.558;-0.448;2024-03-23T08:19:05;100766.88;;;5.69;100.00
60832;BME280;46665;51.558;-0.448;2024-03-23T08:21:52;100770.47;;;5.74;100.00
60832;BME280;46665;51.558;-0.448;2024-03-23T08:24:38;100771.13;;;5.81;100.00
60832;BME280;46665;51.558;-0.448;2024-03-23T08:27:22;100769.41;;;5.92;100.00
60832;BME280;46665;51.558;-0.448;2024-03-23T08:30:06;100766.69;;;5.92;97.83
60832;BME280;46665;51.558;-0.448;2024-03-23T08:32:51;100765.50;;;6.00;97.65
60832;BME280;46665;51.558;-0.448;2024-03-23T08:35:35;100748.38;;;6.11;97.77
60832;BME280;46665;51.558;-0.448;2024-03-23T08:38:18;100763.59;;;6.17;95.62
60832;BME280;46665;51.558;-0.448;2024-03-23T08:41:07;100770.44;;;6.25;95.89
60832;BME280;46665;51.558;-0.448;2024-03-23T08:43:52;100766.44;;;6.27;94.57
60832;BME280;46665;51.558;-0.448;2024-03-23T08:46:39;100770.34;;;6.37;92.55
60832;BME280;46665;51.558;-0.448;2024-03-23T08:49:23;100753.06;;;6.38;90.07
60832;BME280;46665;51.558;-0.448;2024-03-23T08:52:07;100755.53;;;6.39;89.64
60832;BME280;46665;51.558;-0.448;2024-03-23T08:54:51;100758.03;;;6.46;88.28
60832;BME280;46665;51.558;-0.448;2024-03-23T08:57:35;100746.78;;;6.54;88.96
60832;BME280;46665;51.558;-0.448;2024-03-23T09:00:19;100743.13;;;6.65;89.77
60832;BME280;46665;51.558;-0.448;2024-03-23T09:03:04;100731.38;;;6.77;89.92
60832;BME280;46665;51.558;-0.448;2024-03-23T09:05:49;100732.53;;;6.86;84.32
60832;BME280;46665;51.558;-0.448;2024-03-23T09:08:33;100730.84;;;6.80;82.24
60832;BME280;46665;51.558;-0.448;2024-03-23T09:11:18;100757.72;;;6.86;81.13
60832;BME280;46665;51.558;-0.448;2024-03-23T09:14:02;100732.63;;;6.96;82.22
60832;BME280;46665;51.558;-0.448;2024-03-23T09:16:46;100733.88;;;7.10;82.87
60832;BME280;46665;51.558;-0.448;2024-03-23T09:19:29;100723.66;;;7.18;83.79
60832;BME280;46665;51.558;-0.448;2024-03-23T09:22:13;100747.00;;;7.24;82.70
60832;BME280;46665;51.558;-0.448;2024-03-23T09:24:58;100729.94;;;7.23;78.65
60832;BME280;46665;51.558;-0.448;2024-03-23T09:27:42;100742.72;;;7.28;78.86
60832;BME280;46665;51.558;-0.448;2024-03-23T09:30:26;100736.78;;;7.31;78.25
60832;BME280;46665;51.558;-0.448;2024-03-23T09:33:11;100737.34;;;7.33;77.87
60832;BME280;46665;51.558;-0.448;2024-03-23T09:35:55;100735.19;;;7.35;78.15
60832;BME280;46665;51.558;-0.448;2024-03-23T09:38:41;100729.56;;;7.42;78.18
60832;BME280;46665;51.558;-0.448;2024-03-23T09:41:25;100734.25;;;7.51;77.78
60832;BME280;46665;51.558;-0.448;2024-03-23T09:44:09;100721.84;;;7.55;74.58
60832;BME280;46665;51.558;-0.448;2024-03-23T09:46:53;100721.91;;;7.66;77.16
60832;BME280;46665;51.558;-0.448;2024-03-23T09:49:38;100716.38;;;7.88;77.63
60832;BME280;46665;51.558;-0.448;2024-03-23T09:52:22;100716.16;;;7.99;74.69
60832;BME280;46665;51.558;-0.448;2024-03-23T09:55:08;100722.19;;;8.12;74.03
60832;BME280;46665;51.558;-0.448;2024-03-23T09:57:52;100705.94;;;8.12;72.45
60832;BME280;46665;51.558;-0.448;2024-03-23T10:00:36;100713.47;;;8.04;72.20
60832;BME280;46665;51.558;-0.448;2024-03-23T10:03:19;100715.06;;;7.95;70.78
60832;BME280;46665;51.558;-0.448;2024-03-23T10:06:04;100705.84;;;7.96;70.06
60832;BME280;46665;51.558;-0.448;2024-03-23T10:08:48;100701.03;;;8.09;69.39
60832;BME280;46665;51.558;-0.448;2024-03-23T10:11:32;100702.72;;;8.20;69.66
60832;BME280;46665;51.558;-0.448;2024-03-23T10:14:29;100691.91;;;8.30;69.11
60832;BME280;46665;51.558;-0.448;2024-03-23T10:20:09;100680.09;;;8.46;69.46
60832;BME280;46665;51.558;-0.448;2024-03-23T10:22:54;100682.34;;;8.75;68.01
60832;BME280;46665;51.558;-0.448;2024-03-23T10:25:40;100684.28;;;9.00;65.73
60832;BME280;46665;51.558;-0.448;2024-03-23T10:28:24;100699.75;;;8.89;64.77
60832;BME280;46665;51.558;-0.448;2024-03-23T10:31:11;100679.63;;;8.75;65.56
60832;BME280;46665;51.558;-0.448;2024-03-23T10:33:56;100680.69;;;8.64;64.66
60832;BME280;46665;51.558;-0.448;2024-03-23T10:36:40;100690.97;;;8.52;65.19
60832;BME280;46665;51.558;-0.448;2024-03-23T10:39:25;100683.88;;;8.45;66.07
60832;BME280;46665;51.558;-0.448;2024-03-23T10:42:09;100676.72;;;8.24;66.12
60832;BME280;46665;51.558;-0.448;2024-03-23T10:44:56;100662.31;;;8.13;65.44
60832;BME280;46665;51.558;-0.448;2024-03-23T10:47:41;100665.84;;;8.19;64.60
60832;BME280;46665;51.558;-0.448;2024-03-23T10:50:26;100657.72;;;8.19;63.78
60832;BME280;46665;51.558;-0.448;2024-03-23T10:53:11;100653.69;;;8.27;63.63
60832;BME280;46665;51.558;-0.448;2024-03-23T10:55:56;100655.63;;;8.36;64.79
60832;BME280;46665;51.558;-0.448;2024-03-23T10:58:43;100644.06;;;8.51;64.42
60832;BME280;46665;51.558;-0.448;2024-03-23T11:01:28;100644.88;;;8.62;63.09
60832;BME280;46665;51.558;-0.448;2024-03-23T11:04:32;100655.75;;;8.72;63.58
60832;BME280;46665;51.558;-0.448;2024-03-23T11:07:29;100643.00;;;8.67;63.16
60832;BME280;46665;51.558;-0.448;2024-03-23T11:10:43;100634.28;;;8.65;63.12
60832;BME280;46665;51.558;-0.448;2024-03-23T11:13:27;100633.50;;;8.65;63.03
60832;BME280;46665;51.558;-0.448;2024-03-23T11:16:17;100624.28;;;8.61;62.84
60832;BME280;46665;51.558;-0.448;2024-03-23T11:19:33;100612.88;;;8.69;62.50
60832;BME280;46665;51.558;-0.448;2024-03-23T11:25:26;100615.06;;;8.93;59.73
60832;BME280;46665;51.558;-0.448;2024-03-23T11:28:11;100603.97;;;9.09;60.48
60832;BME280;46665;51.558;-0.448;2024-03-23T11:30:58;100605.31;;;9.32;60.17
60832;BME280;46665;51.558;-0.448;2024-03-23T11:33:42;100592.47;;;9.59;59.34
60832;BME280;46665;51.558;-0.448;2024-03-23T11:36:26;100589.19;;;9.67;55.49
60832;BME280;46665;51.558;-0.448;2024-03-23T11:39:14;100576.69;;;9.66;53.89
60832;BME280;46665;51.558;-0.448;2024-03-23T11:42:00;100588.31;;;9.87;55.26
60832;BME280;46665;51.558;-0.448;2024-03-23T11:44:44;100585.56;;;9.97;55.52
60832;BME280;46665;51.558;-0.448;2024-03-23T11:47:28;100592.59;;;10.03;54.40
60832;BME280;46665;51.558;-0.448;2024-03-23T11:50:19;100595.59;;;10.02;54.24
60832;BME280;46665;51.558;-0.448;2024-03-23T11:55:53;100584.25;;;9.84;54.86
60832;BME280;46665;51.558;-0.448;2024-03-23T11:58:40;100578.88;;;9.64;55.09
60832;BME280;46665;51.558;-0.448;2024-03-23T12:01:24;100576.19;;;9.48;55.95
60832;BME280;46665;51.558;-0.448;2024-03-23T12:04:08;100572.72;;;9.32;56.73
60832;BME280;46665;51.558;-0.448;2024-03-23T12:07:18;100562.41;;;9.29;58.02
60832;BME280;46665;51.558;-0.448;2024-03-23T12:10:06;100570.56;;;9.19;62.19
60832;BME280;46665;51.558;-0.448;2024-03-23T12:13:00;100567.84;;;9.04;63.49
60832;BME280;46665;51.558;-0.448;2024-03-23T12:15:46;100561.59;;;9.08;66.86
60832;BME280;46665;51.558;-0.448;2024-03-23T12:18:30;100559.16;;;9.17;62.11
60832;BME280;46665;51.558;-0.448;2024-03-23T12:21:14;100541.44;;;9.50;61.85
60832;BME280;46665;51.558;-0.448;2024-03-23T12:23:58;100538.38;;;9.72;61.33
60832;BME280;46665;51.558;-0.448;2024-03-23T12:26:42;100545.47;;;9.63;59.63
60832;BME280;46665;51.558;-0.448;2024-03-23T12:29:34;100542.47;;;9.65;59.75
60832;BME280;46665;51.558;-0.448;2024-03-23T12:32:18;100533.72;;;9.78;60.76
60832;BME280;46665;51.558;-0.448;2024-03-23T12:35:02;100552.47;;;9.74;57.64
60832;BME280;46665;51.558;-0.448;2024-03-23T12:37:46;100547.91;;;9.70;56.12
60832;BME280;46665;51.558;-0.448;2024-03-23T12:40:30;100543.28;;;9.70;56.74
60832;BME280;46665;51.558;-0.448;2024-03-23T12:43:15;100533.47;;;9.74;57.65
60832;BME280;46665;51.558;-0.448;2024-03-23T12:45:59;100514.41;;;9.80;58.98
60832;BME280;46665;51.558;-0.448;2024-03-23T12:48:44;100525.69;;;10.07;59.40
60832;BME280;46665;51.558;-0.448;2024-03-23T12:51:28;100528.38;;;10.12;60.01
60832;BME280;46665;51.558;-0.448;2024-03-23T12:54:12;100505.84;;;10.07;59.94
60832;BME280;46665;51.558;-0.448;2024-03-23T12:56:57;100509.81;;;10.30;60.96
60832;BME280;46665;51.558;-0.448;2024-03-23T12:59:41;100514.09;;;10.41;58.63
60832;BME280;46665;51.558;-0.448;2024-03-23T13:02:25;100509.16;;;10.48;57.41
60832;BME280;46665;51.558;-0.448;2024-03-23T13:05:09;100501.00;;;10.43;57.28
60832;BME280;46665;51.558;-0.448;2024-03-23T13:07:53;100503.19;;;10.46;57.26
60832;BME280;46665;51.558;-0.448;2024-03-23T13:10:37;100497.16;;;10.05;58.98
60832;BME280;46665;51.558;-0.448;2024-03-23T13:13:21;100519.34;;;9.77;60.28
60832;BME280;46665;51.558;-0.448;2024-03-23T13:16:05;100526.00;;;9.36;61.90
60832;BME280;46665;51.558;-0.448;2024-03-23T13:18:49;100522.19;;;9.26;64.51
60832;BME280;46665;51.558;-0.448;2024-03-23T13:21:33;100515.47;;;8.83;63.07
60832;BME280;46665;51.558;-0.448;2024-03-23T13:24:17;100527.44;;;8.77;66.67
60832;BME280;46665;51.558;-0.448;2024-03-23T13:27:01;100507.91;;;8.70;68.75
60832;BME280;46665;51.558;-0.448;2024-03-23T13:29:45;100508.44;;;8.61;70.60
60832;BME280;46665;51.558;-0.448;2024-03-23T13:32:30;100505.44;;;8.88;71.87
60832;BME280;46665;51.558;-0.448;2024-03-23T13:35:14;100499.47;;;9.07;71.79
60832;BME280;46665;51.558;-0.448;2024-03-23T13:37:58;100497.50;;;9.23;69.66
60832;BME280;46665;51.558;-0.448;2024-03-23T13:40:56;100504.25;;;9.36;66.41
60832;BME280;46665;51.558;-0.448;2024-03-23T13:43:40;100507.50;;;9.43;65.85
60832;BME280;46665;51.558;-0.448;2024-03-23T13:46:25;100524.00;;;9.57;65.07
60832;BME280;46665;51.558;-0.448;2024-03-23T13:49:24;100518.63;;;9.46;62.43
60832;BME280;46665;51.558;-0.448;2024-03-23T13:52:08;100513.78;;;9.33;63.84
60832;BME280;46665;51.558;-0.448;2024-03-23T13:54:52;100512.69;;;9.29;62.97
60832;BME280;46665;51.558;-0.448;2024-03-23T13:57:36;100500.22;;;9.28;63.25
60832;BME280;46665;51.558;-0.448;2024-03-23T14:00:20;100495.88;;;9.32;64.28
60832;BME280;46665;51.558;-0.448;2024-03-23T14:03:04;100484.22;;;9.16;65.08
60832;BME280;46665;51.558;-0.448;2024-03-23T14:05:49;100473.94;;;8.98;66.11
60832;BME280;46665;51.558;-0.448;2024-03-23T14:08:35;100476.13;;;8.96;67.47
60832;BME280;46665;51.558;-0.448;2024-03-23T14:11:20;100473.44;;;8.85;68.05
60832;BME280;46665;51.558;-0.448;2024-03-23T14:14:04;100472.34;;;8.97;67.25
60832;BME280;46665;51.558;-0.448;2024-03-23T14:16:48;100476.06;;;9.21;67.74
60832;BME280;46665;51.558;-0.448;2024-03-23T14:19:32;100470.56;;;9.37;66.37
60832;BME280;46665;51.558;-0.448;2024-03-23T14:22:17;100465.41;;;9.40;66.74
60832;BME280;46665;51.558;-0.448;2024-03-23T14:25:06;100465.38;;;9.50;66.43
60832;BME280;46665;51.558;-0.448;2024-03-23T14:27:51;100481.59;;;9.71;66.04
60832;BME280;46665;51.558;-0.448;2024-03-23T14:30:35;100475.34;;;9.70;66.06
60832;BME280;46665;51.558;-0.448;2024-03-23T14:33:19;100471.25;;;9.73;66.37
60832;BME280;46665;51.558;-0.448;2024-03-23T14:36:03;100467.75;;;9.67;67.69
60832;BME280;46665;51.558;-0.448;2024-03-23T14:38:48;100469.66;;;9.62;66.94
60832;BME280;46665;51.558;-0.448;2024-03-23T14:41:32;100475.81;;;9.88;68.25
60832;BME280;46665;51.558;-0.448;2024-03-23T14:44:16;100459.91;;;10.10;68.43
60832;BME280;46665;51.558;-0.448;2024-03-23T14:47:00;100467.59;;;9.98;65.80
60832;BME280;46665;51.558;-0.448;2024-03-23T14:49:44;100450.63;;;10.11;65.56
60832;BME280;46665;51.558;-0.448;2024-03-23T14:52:31;100452.72;;;9.85;65.18
60832;BME280;46665;51.558;-0.448;2024-03-23T14:55:14;100449.97;;;9.90;66.56
60832;BME280;46665;51.558;-0.448;2024-03-23T14:57:58;100435.88;;;9.83;65.79
60832;BME280;46665;51.558;-0.448;2024-03-23T15:00:42;100441.91;;;10.14;64.86
60832;BME280;46665;51.558;-0.448;2024-03-23T15:03:27;100434.25;;;10.22;65.02
60832;BME280;46665;51.558;-0.448;2024-03-23T15:06:11;100446.16;;;10.65;64.23
60832;BME280;46665;51.558;-0.448;2024-03-23T15:08:55;100442.19;;;10.81;63.79
60832;BME280;46665;51.558;-0.448;2024-03-23T15:11:39;100441.38;;;10.81;62.78
60832;BME280;46665;51.558;-0.448;2024-03-23T15:14:23;100445.72;;;10.53;64.28
60832;BME280;46665;51.558;-0.448;2024-03-23T15:17:07;100455.78;;;10.18;64.15